Time;durP1;ratioP1;P1;durP2;ratioP2;P2;SDS_P1;SDS_P2;PMS_P1;PMS_P2;Temp;Humidity;BMP_temperature;BMP_pressure;BME280_temperature;BME280_humidity;BME280_pressure;Samples;Min_cycle;Max_cycle;Signal;HPM_P1;HPM_P2
2022/07/11 00:01:21;;;;;;;0.00;0.00;;;12.50;99.90;;;;;;4981098;28;20741;-74
2022/07/11 00:03:49;;;;;;;0.00;0.00;;;12.60;99.90;;;;;;4982128;28;20997;-74
2022/07/11 00:06:16;;;;;;;0.00;0.00;;;12.60;99.90;;;;;;4981082;28;20740;-74
2022/07/11 00:08:44;;;;;;;0.00;0.00;;;12.50;99.90;;;;;;4980959;28;20455;-74
2022/07/11 00:11:12;;;;;;;0.00;0.00;;;12.50;99.90;;;;;;4981124;28;20719;-73
2022/07/11 00:13:40;;;;;;;0.00;0.00;;;12.50;99.90;;;;;;4980975;28;20531;-73
2022/07/11 00:16:09;;;;;;;0.00;0.00;;;12.50;99.90;;;;;;4980644;28;20450;-74
2022/07/11 00:18:39;;;;;;;0.00;0.00;;;12.50;99.90;;;;;;4980692;28;20497;-73
2022/07/11 00:21:07;;;;;;;0.00;0.00;;;12.50;99.90;;;;;;4980477;28;20454;-73
2022/07/11 00:23:35;;;;;;;0.00;0.00;;;12.50;99.90;;;;;;4979868;28;20486;-72
2022/07/11 00:26:03;;;;;;;0.00;0.00;;;12.50;99.90;;;;;;4980553;28;20441;-74
2022/07/11 00:28:31;;;;;;;0.00;0.00;;;12.50;99.90;;;;;;4980012;28;21213;-74
2022/07/11 00:30:59;;;;;;;0.00;0.00;;;12.50;99.90;;;;;;4980335;28;20792;-72
2022/07/11 00:33:28;;;;;;;0.00;0.00;;;12.50;99.90;;;;;;4980116;28;20439;-72
2022/07/11 00:35:56;;;;;;;0.00;0.00;;;12.40;99.90;;;;;;4980197;28;20447;-73
2022/07/11 00:38:24;;;;;;;0.00;0.00;;;12.40;99.90;;;;;;4980200;28;20534;-72
2022/07/11 00:40:52;;;;;;;0.00;0.00;;;12.40;99.90;;;;;;4980118;28;20549;-72
2022/07/11 00:43:29;;;;;;;0.00;0.00;;;12.40;99.90;;;;;;4979997;28;20475;-72
2022/07/11 00:45:57;;;;;;;0.00;0.00;;;12.30;99.90;;;;;;4980315;28;20463;-72
2022/07/11 00:48:25;;;;;;;0.00;0.00;;;12.30;99.90;;;;;;4979828;28;20527;-72
2022/07/11 00:50:55;;;;;;;0.00;0.00;;;12.20;99.90;;;;;;4980033;28;20453;-72
2022/07/11 00:53:23;;;;;;;0.00;0.00;;;12.20;99.90;;;;;;4980482;28;20474;-72
2022/07/11 00:55:53;;;;;;;0.00;0.00;;;12.10;99.90;;;;;;4980338;28;21135;-72
2022/07/11 00:58:21;;;;;;;0.00;0.00;;;12.10;99.90;;;;;;4983730;28;21153;-72
2022/07/11 01:00:49;;;;;;;0.00;0.00;;;12.00;99.90;;;;;;4982104;28;20476;-73
2022/07/11 01:03:17;;;;;;;0.00;0.00;;;12.00;99.90;;;;;;4980017;28;20640;-72
2022/07/11 01:05:46;;;;;;;0.00;0.00;;;12.00;99.90;;;;;;4979799;28;21084;-72
2022/07/11 01:08:16;;;;;;;0.00;0.00;;;12.00;99.90;;;;;;4979982;28;20564;-72
2022/07/11 01:10:44;;;;;;;0.00;0.00;;;12.00;99.90;;;;;;4979427;28;20559;-72
2022/07/11 01:13:12;;;;;;;0.00;0.00;;;11.90;99.90;;;;;;4979463;28;20450;-72
2022/07/11 01:15:39;;;;;;;0.00;0.00;;;11.90;99.90;;;;;;4979332;28;20469;-71
2022/07/11 01:18:07;;;;;;;0.00;0.00;;;12.00;99.90;;;;;;4979205;28;20459;-71
2022/07/11 01:20:35;;;;;;;0.00;0.00;;;12.00;99.90;;;;;;4979367;28;20453;-74
2022/07/11 01:23:06;;;;;;;0.00;0.00;;;12.00;99.90;;;;;;4979061;28;20901;-74
2022/07/11 01:25:35;;;;;;;0.00;0.00;;;12.00;99.90;;;;;;4979155;28;20443;-72
2022/07/11 01:28:06;;;;;;;0.00;0.00;;;12.00;99.90;;;;;;4978859;28;20483;-72
2022/07/11 01:30:34;;;;;;;0.00;0.00;;;12.00;99.90;;;;;;4979258;28;20667;-72
2022/07/11 01:33:02;;;;;;;0.00;0.00;;;11.90;99.90;;;;;;4979777;28;20594;-71
2022/07/11 01:35:30;;;;;;;0.00;0.00;;;11.90;99.90;;;;;;4979201;28;20435;-72
2022/07/11 01:37:58;;;;;;;0.00;0.00;;;11.90;99.90;;;;;;4978922;28;21115;-72
2022/07/11 01:40:31;;;;;;;0.00;0.00;;;12.00;99.90;;;;;;4978889;28;20439;-72
2022/07/11 01:42:59;;;;;;;0.00;0.00;;;12.00;99.90;;;;;;4979201;28;21222;-72
2022/07/11 01:45:27;;;;;;;0.00;0.00;;;12.00;99.90;;;;;;4978882;28;20819;-72
2022/07/11 01:47:55;;;;;;;0.00;0.00;;;12.00;99.90;;;;;;4979287;28;20558;-72
2022/07/11 01:50:23;;;;;;;0.00;0.00;;;12.00;99.90;;;;;;4978437;28;20497;-72
2022/07/11 01:52:50;;;;;;;0.00;0.00;;;11.90;99.90;;;;;;4978908;28;20463;-72
2022/07/11 01:55:18;;;;;;;0.00;0.00;;;11.90;99.90;;;;;;4979142;28;20450;-72
2022/07/11 01:57:47;;;;;;;0.00;0.00;;;11.80;99.90;;;;;;4978609;28;20496;-72
2022/07/11 02:00:15;;;;;;;0.00;0.00;;;11.80;99.90;;;;;;4979026;28;20659;-72
2022/07/11 02:02:43;;;;;;;0.00;0.00;;;11.90;99.90;;;;;;4978838;28;20791;-72
2022/07/11 02:05:11;;;;;;;0.00;0.00;;;11.90;99.90;;;;;;4978729;28;20570;-72
2022/07/11 02:10:28;;;;;;;0.00;0.00;;;12.00;99.90;;;;;;4978904;28;20549;-72
2022/07/11 02:12:58;;;;;;;0.00;0.00;;;12.00;99.90;;;;;;4979057;28;20439;-72
2022/07/11 02:15:26;;;;;;;0.00;0.00;;;11.90;99.90;;;;;;4978763;28;20451;-72
2022/07/11 02:23:04;;;;;;;0.00;0.00;;;12.10;99.90;;;;;;4983961;28;20569;-73
2022/07/11 02:25:33;;;;;;;0.00;0.00;;;12.10;99.90;;;;;;4979332;28;21127;-74
2022/07/11 02:28:02;;;;;;;0.00;0.00;;;12.10;99.90;;;;;;4980972;28;21149;-73
2022/07/11 02:30:30;;;;;;;0.00;0.00;;;12.20;99.90;;;;;;4983108;28;20474;-74
2022/07/11 02:32:58;;;;;;;0.00;0.00;;;12.30;99.90;;;;;;4982696;28;20713;-73
2022/07/11 02:35:26;;;;;;;0.00;0.00;;;12.30;99.90;;;;;;4982882;28;20435;-74
2022/07/11 02:37:54;;;;;;;0.00;0.00;;;12.20;99.90;;;;;;4982679;28;20469;-73
2022/07/11 02:40:22;;;;;;;0.00;0.00;;;12.20;99.90;;;;;;4982324;28;20435;-74
2022/07/11 02:42:49;;;;;;;0.00;0.00;;;12.10;99.90;;;;;;4982633;28;21059;-72
2022/07/11 02:45:18;;;;;;;0.00;0.00;;;12.10;99.90;;;;;;4982500;28;20489;-72
2022/07/11 02:47:46;;;;;;;0.00;0.00;;;12.00;99.90;;;;;;4982268;28;20469;-73
2022/07/11 02:50:15;;;;;;;0.00;0.00;;;12.00;99.90;;;;;;4983127;28;20445;-73
2022/07/11 02:52:43;;;;;;;0.00;0.00;;;11.90;99.90;;;;;;4983837;28;20827;-73
2022/07/11 02:55:12;;;;;;;0.00;0.00;;;11.90;99.90;;;;;;4982880;28;20462;-74
2022/07/11 02:57:41;;;;;;;0.00;0.00;;;11.80;99.90;;;;;;4982600;28;21159;-73
2022/07/11 03:00:11;;;;;;;0.00;0.00;;;11.70;99.90;;;;;;4982684;28;20534;-73
2022/07/11 03:02:40;;;;;;;0.00;0.00;;;11.80;99.90;;;;;;4982213;28;20446;-73
2022/07/11 03:05:09;;;;;;;0.00;0.00;;;11.70;99.90;;;;;;4983175;28;20646;-74
2022/07/11 03:07:36;;;;;;;0.00;0.00;;;11.70;99.90;;;;;;4994615;28;20494;-73
2022/07/11 03:10:05;;;;;;;0.00;0.00;;;11.70;99.90;;;;;;4989803;28;20967;-73
2022/07/11 03:12:33;;;;;;;0.00;0.00;;;11.60;99.90;;;;;;4982643;28;20438;-74
2022/07/11 03:15:01;;;;;;;0.00;0.00;;;11.60;99.90;;;;;;4982182;28;20941;-74
2022/07/11 03:17:29;;;;;;;0.00;0.00;;;11.60;99.90;;;;;;4981627;28;20477;-73
2022/07/11 03:20:00;;;;;;;0.00;0.00;;;11.50;99.90;;;;;;4981971;28;20587;-73
2022/07/11 03:22:28;;;;;;;0.00;0.00;;;11.50;99.90;;;;;;4981517;28;20545;-74
2022/07/11 03:24:56;;;;;;;0.00;0.00;;;11.50;99.90;;;;;;4981392;28;20785;-73
2022/07/11 03:27:24;;;;;;;0.00;0.00;;;11.50;99.90;;;;;;4981192;28;20462;-73
2022/07/11 03:29:52;;;;;;;0.00;0.00;;;11.50;99.90;;;;;;4981568;28;20457;-74
2022/07/11 03:32:22;;;;;;;0.00;0.00;;;11.40;99.90;;;;;;4981419;28;20449;-74
2022/07/11 03:37:42;;;;;;;0.00;0.00;;;11.40;99.90;;;;;;4981151;28;20458;-71
2022/07/11 03:40:11;;;;;;;0.00;0.00;;;11.40;99.90;;;;;;4981277;28;21029;-74
2022/07/11 03:42:39;;;;;;;0.00;0.00;;;11.40;99.90;;;;;;4981164;28;20728;-72
2022/07/11 03:45:07;;;;;;;0.00;0.00;;;11.40;99.90;;;;;;4981471;28;20475;-73
2022/07/11 03:47:36;;;;;;;0.00;0.00;;;11.40;99.90;;;;;;4981324;28;20771;-72
2022/07/11 03:50:05;;;;;;;0.00;0.00;;;11.40;99.90;;;;;;4981328;28;20491;-74
2022/07/11 03:52:33;;;;;;;0.00;0.00;;;11.50;99.90;;;;;;4981180;28;20457;-73
2022/07/11 03:55:02;;;;;;;0.00;0.00;;;11.50;99.90;;;;;;4981194;28;20431;-73
2022/07/11 03:57:30;;;;;;;0.00;0.00;;;11.50;99.90;;;;;;4981480;28;20475;-74
2022/07/11 03:59:58;;;;;;;0.00;0.00;;;11.50;99.90;;;;;;4981192;28;20568;-73
2022/07/11 04:02:26;;;;;;;0.00;0.00;;;11.50;99.90;;;;;;4980983;28;20431;-74
2022/07/11 04:04:54;;;;;;;0.00;0.00;;;11.60;99.90;;;;;;4981163;28;20581;-73
2022/07/11 04:07:22;;;;;;;0.00;0.00;;;11.60;99.90;;;;;;4980791;28;20455;-73
2022/07/11 04:09:49;;;;;;;0.00;0.00;;;11.70;99.90;;;;;;4980925;28;20475;-73
2022/07/11 04:12:19;;;;;;;0.00;0.00;;;11.70;99.90;;;;;;4980471;28;20451;-73
2022/07/11 04:14:46;;;;;;;0.00;0.00;;;11.70;99.90;;;;;;4980752;28;20461;-73
2022/07/11 04:17:14;;;;;;;0.00;0.00;;;11.80;99.90;;;;;;4980412;28;20479;-73
2022/07/11 04:19:42;;;;;;;0.00;0.00;;;11.80;99.90;;;;;;4982593;28;20447;-73
2022/07/11 04:22:10;;;;;;;0.00;0.00;;;11.90;99.90;;;;;;4982530;28;20682;-73
2022/07/11 04:24:38;;;;;;;0.00;0.00;;;12.00;99.90;;;;;;4983363;28;20451;-73
2022/07/11 04:27:06;;;;;;;0.00;0.00;;;12.00;99.90;;;;;;4980933;28;20459;-73
2022/07/11 04:29:35;;;;;;;0.00;0.00;;;12.10;99.90;;;;;;4981635;28;20442;-73
2022/07/11 04:32:04;;;;;;;0.00;0.00;;;12.20;99.90;;;;;;4980924;28;20518;-73
2022/07/11 04:34:32;;;;;;;0.00;0.00;;;12.20;99.90;;;;;;4980434;28;20736;-73
2022/07/11 04:36:59;;;;;;;0.00;0.00;;;12.30;99.90;;;;;;4980083;28;20501;-73
2022/07/11 04:39:27;;;;;;;0.00;0.00;;;12.30;99.90;;;;;;4982509;28;21014;-74
2022/07/11 04:41:55;;;;;;;0.00;0.00;;;12.40;99.90;;;;;;4983502;28;20441;-72
2022/07/11 04:44:23;;;;;;;0.00;0.00;;;12.40;99.90;;;;;;4980444;28;20538;-74
2022/07/11 04:46:52;;;;;;;0.00;0.00;;;12.50;99.90;;;;;;4979683;28;20487;-74
2022/07/11 04:49:20;;;;;;;0.00;0.00;;;12.50;99.90;;;;;;4979960;28;20470;-72
2022/07/11 04:51:48;;;;;;;0.00;0.00;;;12.60;99.90;;;;;;4979314;28;20509;-73
2022/07/11 04:54:15;;;;;;;0.00;0.00;;;12.70;99.90;;;;;;4979998;28;20439;-72
2022/07/11 04:56:43;;;;;;;0.00;0.00;;;12.90;99.90;;;;;;4980091;28;20889;-72
2022/07/11 04:59:11;;;;;;;0.00;0.00;;;12.80;99.90;;;;;;4980057;28;20749;-73
2022/07/11 05:01:39;;;;;;;0.00;0.00;;;12.90;99.90;;;;;;4979772;28;20435;-72
2022/07/11 05:04:08;;;;;;;0.00;0.00;;;13.00;99.90;;;;;;4979987;28;20447;-73
2022/07/11 05:06:36;;;;;;;0.00;0.00;;;13.20;99.90;;;;;;4979648;28;20498;-72
2022/07/11 05:09:07;;;;;;;0.00;0.00;;;13.30;99.90;;;;;;4981398;28;20451;-72
2022/07/11 05:11:36;;;;;;;0.00;0.00;;;13.40;99.90;;;;;;4982180;28;20450;-74
2022/07/11 05:14:07;;;;;;;0.00;0.00;;;13.40;99.90;;;;;;4982711;28;20875;-74
2022/07/11 05:16:35;;;;;;;0.00;0.00;;;13.50;99.90;;;;;;4982983;28;21138;-72
2022/07/11 05:19:08;;;;;;;0.00;0.00;;;13.50;99.90;;;;;;4986607;28;20451;-72
2022/07/11 05:21:36;;;;;;;0.00;0.00;;;13.60;99.90;;;;;;4980862;28;20454;-74
2022/07/11 05:24:04;;;;;;;0.00;0.00;;;13.70;99.90;;;;;;4981270;28;20463;-72
2022/07/11 05:26:31;;;;;;;0.00;0.00;;;13.80;99.90;;;;;;4979261;28;20589;-73
2022/07/11 05:28:59;;;;;;;0.00;0.00;;;13.90;99.90;;;;;;4980029;28;20461;-74
2022/07/11 05:31:27;;;;;;;0.00;0.00;;;14.00;99.90;;;;;;4989231;28;20626;-74
2022/07/11 05:33:55;;;;;;;0.00;0.00;;;14.20;99.90;;;;;;4979565;28;20812;-74
2022/07/11 05:36:24;;;;;;;0.00;0.00;;;14.50;99.90;;;;;;4978955;28;20466;-74
2022/07/11 05:38:52;;;;;;;0.00;0.00;;;14.60;99.90;;;;;;4979288;28;20465;-73
2022/07/11 05:41:20;;;;;;;0.00;0.00;;;14.60;99.90;;;;;;4978886;28;20889;-74
2022/07/11 05:43:48;;;;;;;0.00;0.00;;;14.60;99.90;;;;;;4979174;28;20443;-74
2022/07/11 05:46:16;;;;;;;0.00;0.00;;;14.50;99.90;;;;;;4979053;28;20768;-74
2022/07/11 05:48:44;;;;;;;0.00;0.00;;;14.60;99.90;;;;;;4980182;28;20470;-74
2022/07/11 05:51:13;;;;;;;0.00;0.00;;;14.60;99.90;;;;;;4979069;28;21066;-74
2022/07/11 05:53:43;;;;;;;0.00;0.00;;;14.50;99.90;;;;;;4979003;28;20525;-74
2022/07/11 05:56:11;;;;;;;0.00;0.00;;;14.50;99.90;;;;;;4979119;28;20810;-74
2022/07/11 05:58:39;;;;;;;0.00;0.00;;;14.60;99.90;;;;;;4978909;28;21077;-74
2022/07/11 06:01:08;;;;;;;0.00;0.00;;;14.70;99.90;;;;;;4978462;28;20930;-74
2022/07/11 06:03:36;;;;;;;0.00;0.00;;;14.70;99.90;;;;;;4978594;28;20629;-73
2022/07/11 06:06:06;;;;;;;0.00;0.00;;;14.70;99.90;;;;;;4979700;28;20489;-73
2022/07/11 06:08:43;;;;;;;0.00;0.00;;;14.80;99.90;;;;;;4979678;28;20498;-73
2022/07/11 06:11:14;;;;;;;0.00;0.00;;;14.90;99.90;;;;;;4979100;28;20823;-73
2022/07/11 06:13:45;;;;;;;0.00;0.00;;;15.00;99.90;;;;;;4979192;28;20444;-73
2022/07/11 06:16:13;;;;;;;0.00;0.00;;;15.10;99.90;;;;;;4978718;28;20876;-74
2022/07/11 06:18:41;;;;;;;0.00;0.00;;;15.10;99.90;;;;;;4978513;28;20478;-74
2022/07/11 06:21:09;;;;;;;0.00;0.00;;;15.20;99.90;;;;;;4978692;28;20819;-74
2022/07/11 06:23:37;;;;;;;0.00;0.00;;;15.30;99.90;;;;;;4979136;28;20830;-74
2022/07/11 06:26:06;;;;;;;0.00;0.00;;;15.30;99.90;;;;;;4979505;28;20541;-74
2022/07/11 06:28:35;;;;;;;0.00;0.00;;;15.30;99.90;;;;;;4978669;28;20477;-73
2022/07/11 06:31:03;;;;;;;0.00;0.00;;;15.40;99.90;;;;;;4978441;28;20721;-73
2022/07/11 06:33:31;;;;;;;0.00;0.00;;;15.50;99.90;;;;;;4979135;28;20450;-73
2022/07/11 06:35:59;;;;;;;0.00;0.00;;;15.60;99.90;;;;;;4978648;28;20443;-74
2022/07/11 06:38:28;;;;;;;0.00;0.00;;;15.60;99.90;;;;;;4978959;28;20486;-73
2022/07/11 06:40:56;;;;;;;0.00;0.00;;;15.70;99.90;;;;;;4978646;28;20446;-73
2022/07/11 06:43:24;;;;;;;0.00;0.00;;;15.80;99.90;;;;;;4980340;28;20449;-74
2022/07/11 06:45:53;;;;;;;0.00;0.00;;;15.90;99.90;;;;;;4978696;28;20792;-72
2022/07/11 06:48:21;;;;;;;0.00;0.00;;;16.10;99.90;;;;;;4978773;28;20475;-74
2022/07/11 06:50:49;;;;;;;0.00;0.00;;;16.10;99.90;;;;;;4978647;28;20861;-74
2022/07/11 06:53:17;;;;;;;0.00;0.00;;;16.30;99.90;;;;;;4979340;28;20954;-74
2022/07/11 06:55:45;;;;;;;0.00;0.00;;;16.40;99.90;;;;;;4978448;28;20469;-72
2022/07/11 06:58:31;;;;;;;0.00;0.00;;;16.50;99.90;;;;;;4978520;28;20772;-74
2022/07/11 07:01:02;;;;;;;0.00;0.00;;;16.80;99.90;;;;;;4978109;28;20850;-74
2022/07/11 07:03:31;;;;;;;0.00;0.00;;;17.00;99.90;;;;;;4978505;28;20450;-72
2022/07/11 07:06:00;;;;;;;0.00;0.00;;;17.10;99.90;;;;;;4978491;28;20452;-73
2022/07/11 07:08:30;;;;;;;0.00;0.00;;;17.30;99.90;;;;;;4979709;28;20558;-73
2022/07/11 07:10:58;;;;;;;0.00;0.00;;;17.40;99.90;;;;;;4978625;28;20745;-74
2022/07/11 07:13:35;;;;;;;0.00;0.00;;;17.50;99.90;;;;;;4980054;28;20457;-74
2022/07/11 07:16:06;;;;;;;0.00;0.00;;;17.50;99.90;;;;;;4982029;28;20794;-74
2022/07/11 07:18:36;;;;;;;0.00;0.00;;;17.40;99.90;;;;;;4982475;28;20463;-72
2022/07/11 07:21:04;;;;;;;0.00;0.00;;;17.30;99.90;;;;;;4981837;28;20778;-74
2022/07/11 07:23:32;;;;;;;0.00;0.00;;;17.20;99.90;;;;;;4982325;28;20549;-74
2022/07/11 07:26:00;;;;;;;0.00;0.00;;;17.10;99.90;;;;;;4987935;28;20506;-74
2022/07/11 07:28:28;;;;;;;0.00;0.00;;;17.10;99.90;;;;;;4995671;28;20968;-74
2022/07/11 07:30:56;;;;;;;0.00;0.00;;;17.10;99.90;;;;;;4982506;28;20447;-73
2022/07/11 07:33:25;;;;;;;0.00;0.00;;;17.20;99.90;;;;;;4981913;28;20616;-73
2022/07/11 07:36:12;;;;;;;0.00;0.00;;;17.30;99.90;;;;;;4981517;28;20453;-73
2022/07/11 07:38:41;;;;;;;0.00;0.00;;;17.50;99.90;;;;;;4981266;28;20693;-74
2022/07/11 07:41:10;;;;;;;0.00;0.00;;;17.60;99.90;;;;;;4981401;28;20439;-74
2022/07/11 07:43:38;;;;;;;0.00;0.00;;;17.70;99.90;;;;;;4981732;28;20495;-74
2022/07/11 07:46:08;;;;;;;0.00;0.00;;;17.80;99.90;;;;;;4981422;28;20443;-74
2022/07/11 07:48:38;;;;;;;0.00;0.00;;;17.90;99.90;;;;;;4981810;28;20578;-74
2022/07/11 07:51:06;;;;;;;0.00;0.00;;;18.00;99.90;;;;;;4980705;28;20828;-72
2022/07/11 07:53:34;;;;;;;0.00;0.00;;;18.20;99.90;;;;;;4981390;28;20476;-74
2022/07/11 07:56:02;;;;;;;0.00;0.00;;;18.30;99.90;;;;;;4980865;28;20718;-72
2022/07/11 07:58:30;;;;;;;0.00;0.00;;;18.30;99.90;;;;;;4981394;28;20989;-73
2022/07/11 08:03:45;;;;;;;0.00;0.00;;;18.40;99.90;;;;;;4981444;28;20701;-74
2022/07/11 08:06:12;;;;;;;0.00;0.00;;;18.50;99.90;;;;;;4981547;28;20480;-74
2022/07/11 08:08:40;;;;;;;0.00;0.00;;;18.70;99.90;;;;;;4980875;28;21232;-73
2022/07/11 08:11:08;;;;;;;0.00;0.00;;;18.60;99.90;;;;;;4980856;28;21020;-73
2022/07/11 08:13:57;;;;;;;0.00;0.00;;;18.50;99.90;;;;;;4981137;28;21072;-74
2022/07/11 08:16:25;;;;;;;0.00;0.00;;;18.40;99.90;;;;;;4980670;28;20940;-73
2022/07/11 08:18:55;;;;;;;0.00;0.00;;;18.40;99.90;;;;;;4981149;28;21067;-74
2022/07/11 08:21:23;;;;;;;0.00;0.00;;;18.40;99.90;;;;;;4981775;28;20445;-73
2022/07/11 08:23:51;;;;;;;0.00;0.00;;;18.40;99.90;;;;;;4980576;28;20822;-73
2022/07/11 08:26:19;;;;;;;0.00;0.00;;;18.50;99.90;;;;;;4980081;28;20538;-73
2022/07/11 08:28:47;;;;;;;0.00;0.00;;;18.50;99.90;;;;;;4981014;28;20593;-73
2022/07/11 08:31:15;;;;;;;0.00;0.00;;;18.60;99.90;;;;;;4981596;28;20452;-73
2022/07/11 08:33:43;;;;;;;0.00;0.00;;;18.70;99.90;;;;;;4983562;28;20483;-73
2022/07/11 08:36:13;;;;;;;0.00;0.00;;;18.70;99.90;;;;;;4960967;28;21030;-73
2022/07/11 08:38:43;;;;;;;0.00;0.00;;;18.80;99.90;;;;;;4962313;28;20472;-74
2022/07/11 08:41:12;;;;;;;0.00;0.00;;;19.00;99.90;;;;;;4961279;28;20503;-73
2022/07/11 08:43:42;;;;;;;0.00;0.00;;;19.10;99.90;;;;;;4961180;28;20535;-74
2022/07/11 08:46:11;;;;;;;0.00;0.00;;;19.30;99.90;;;;;;4961299;28;20777;-74
2022/07/11 08:48:40;;;;;;;0.00;0.00;;;19.30;99.90;;;;;;4960935;28;20482;-74
2022/07/11 08:51:09;;;;;;;0.00;0.00;;;19.30;99.90;;;;;;4960681;28;20547;-73
2022/07/11 08:53:44;;;;;;;0.00;0.00;;;19.30;99.90;;;;;;4960726;28;20966;-73
2022/07/11 08:56:17;;;;;;;0.00;0.00;;;19.30;99.90;;;;;;4963094;28;20480;-73
2022/07/11 08:58:47;;;;;;;0.00;0.00;;;19.30;99.90;;;;;;4960811;28;20957;-74
2022/07/11 09:01:28;;;;;;;0.00;0.00;;;19.40;99.90;;;;;;4960387;28;20926;-73
2022/07/11 09:03:56;;;;;;;0.00;0.00;;;19.50;99.90;;;;;;4960199;28;20436;-73
2022/07/11 09:06:25;;;;;;;0.00;0.00;;;19.60;99.90;;;;;;4960400;28;20817;-73
2022/07/11 09:08:58;;;;;;;0.00;0.00;;;19.60;99.90;;;;;;4960365;28;20484;-73
2022/07/11 09:11:26;;;;;;;0.00;0.00;;;19.50;99.90;;;;;;4960338;28;20460;-73
2022/07/11 09:13:54;;;;;;;0.00;0.00;;;19.30;99.90;;;;;;4962211;28;20832;-74
2022/07/11 09:16:26;;;;;;;0.00;0.00;;;19.30;99.90;;;;;;4962956;28;20455;-73
2022/07/11 09:18:58;;;;;;;0.00;0.00;;;19.50;99.90;;;;;;4964384;28;20759;-73
2022/07/11 09:26:59;;;;;;;0.00;0.00;;;20.00;99.90;;;;;;4963517;28;20456;-73
2022/07/11 09:29:27;;;;;;;0.00;0.00;;;20.30;99.90;;;;;;4960834;28;20479;-73
2022/07/11 09:31:55;;;;;;;0.00;0.00;;;20.50;99.90;;;;;;4960216;28;20471;-72
2022/07/11 09:34:26;;;;;;;0.00;0.00;;;20.50;99.90;;;;;;4960337;28;20643;-74
2022/07/11 09:36:56;;;;;;;0.00;0.00;;;20.50;99.90;;;;;;4961500;28;20463;-72
2022/07/11 09:39:27;;;;;;;0.00;0.00;;;20.40;99.90;;;;;;4961259;28;20480;-71
2022/07/11 09:41:56;;;;;;;0.00;0.00;;;20.40;99.90;;;;;;4960993;28;20460;-74
2022/07/11 09:44:27;;;;;;;0.00;0.00;;;20.50;99.90;;;;;;4959943;28;20448;-74
2022/07/11 09:46:56;;;;;;;0.00;0.00;;;20.60;99.90;;;;;;4959839;28;20475;-74
2022/07/11 09:49:32;;;;;;;0.00;0.00;;;20.50;99.90;;;;;;4959684;28;20487;-74
2022/07/11 09:52:08;;;;;;;0.00;0.00;;;20.50;99.90;;;;;;4959990;28;20820;-73
2022/07/11 09:54:53;;;;;;;0.00;0.00;;;20.50;99.90;;;;;;4962423;28;20446;-73
2022/07/11 09:57:29;;;;;;;0.00;0.00;;;20.60;99.90;;;;;;4959365;28;20551;-73
2022/07/11 09:59:58;;;;;;;0.00;0.00;;;20.50;99.90;;;;;;4959519;28;20440;-73
2022/07/11 10:02:26;;;;;;;0.00;0.00;;;20.60;99.90;;;;;;4959148;28;20960;-72
2022/07/11 10:04:54;;;;;;;0.00;0.00;;;20.60;99.90;;;;;;4959778;28;20478;-73
2022/07/11 10:07:21;;;;;;;0.00;0.00;;;20.70;99.90;;;;;;4959202;28;21086;-74
2022/07/11 10:09:51;;;;;;;0.00;0.00;;;20.80;99.90;;;;;;4959425;28;20486;-72
2022/07/11 10:12:20;;;;;;;0.00;0.00;;;20.90;99.90;;;;;;4959420;28;20528;-72
2022/07/11 10:14:50;;;;;;;0.00;0.00;;;21.00;99.90;;;;;;4960429;28;20451;-74
2022/07/11 10:17:27;;;;;;;0.00;0.00;;;21.20;99.90;;;;;;4958843;28;21070;-73
2022/07/11 10:20:06;;;;;;;0.00;0.00;;;21.40;99.90;;;;;;4959240;28;20939;-73
2022/07/11 10:22:40;;;;;;;0.00;0.00;;;21.30;99.90;;;;;;4959446;28;20456;-73
2022/07/11 10:25:17;;;;;;;0.00;0.00;;;21.10;99.90;;;;;;4959155;28;20451;-73
2022/07/11 10:27:58;;;;;;;0.00;0.00;;;21.00;99.90;;;;;;4958959;28;20682;-73
2022/07/11 10:30:44;;;;;;;0.00;0.00;;;21.00;99.90;;;;;;4959256;28;20447;-73
2022/07/11 10:33:13;;;;;;;0.00;0.00;;;21.10;99.90;;;;;;4958979;28;20567;-73
2022/07/11 10:35:42;;;;;;;0.00;0.00;;;21.10;99.90;;;;;;4959400;28;20822;-74
2022/07/11 10:38:10;;;;;;;0.00;0.00;;;21.00;99.90;;;;;;4958942;28;20474;-74
2022/07/11 10:40:45;;;;;;;0.00;0.00;;;21.00;99.90;;;;;;4958709;28;20471;-74
2022/07/11 10:43:14;;;;;;;0.00;0.00;;;21.10;99.90;;;;;;4958808;28;20444;-73
2022/07/11 10:45:55;;;;;;;0.00;0.00;;;21.50;99.90;;;;;;4958926;28;20863;-73
2022/07/11 10:48:23;;;;;;;0.00;0.00;;;21.80;99.90;;;;;;4959675;28;20479;-73
2022/07/11 10:51:04;;;;;;;0.00;0.00;;;22.00;99.90;;;;;;4962419;28;20445;-74
2022/07/11 10:53:33;;;;;;;0.00;0.00;;;22.10;99.90;;;;;;4962750;28;20583;-73
2022/07/11 10:56:17;;;;;;;0.00;0.00;;;22.00;99.90;;;;;;4962871;28;20887;-73
2022/07/11 10:59:14;;;;;;;0.00;0.00;;;21.80;99.90;;;;;;4962983;28;20441;-73
2022/07/11 11:02:11;;;;;;;0.00;0.00;;;21.60;99.90;;;;;;4962745;28;20749;-73
2022/07/11 11:04:44;;;;;;;0.00;0.00;;;21.30;99.90;;;;;;4962189;28;20518;-73
2022/07/11 11:07:31;;;;;;;0.00;0.00;;;21.40;99.90;;;;;;4962294;28;20506;-74
2022/07/11 11:10:00;;;;;;;0.00;0.00;;;21.50;99.90;;;;;;4957387;28;20549;-73
2022/07/11 11:13:05;;;;;;;0.00;0.00;;;21.70;99.90;;;;;;4962156;28;20715;-73
2022/07/11 11:15:39;;;;;;;0.00;0.00;;;22.00;99.90;;;;;;4962221;28;20496;-73
2022/07/11 11:18:50;;;;;;;0.00;0.00;;;22.10;99.90;;;;;;4962169;28;21059;-73
2022/07/11 11:21:22;;;;;;;0.00;0.00;;;22.10;99.90;;;;;;4947145;28;20463;-73
2022/07/11 11:24:09;;;;;;;0.00;0.00;;;22.30;99.90;;;;;;4961883;28;20460;-72
2022/07/11 11:26:58;;;;;;;0.00;0.00;;;22.40;99.90;;;;;;4961915;28;20643;-74
2022/07/11 11:29:29;;;;;;;0.00;0.00;;;22.50;99.90;;;;;;4957452;28;20483;-73
2022/07/11 11:32:00;;;;;;;0.00;0.00;;;22.50;99.90;;;;;;4961859;28;20513;-74
2022/07/11 11:34:30;;;;;;;0.00;0.00;;;22.50;99.90;;;;;;4961870;28;20441;-73
2022/07/11 11:37:01;;;;;;;0.00;0.00;;;22.50;99.90;;;;;;4961777;28;21035;-73
2022/07/11 11:39:34;;;;;;;0.00;0.00;;;22.60;99.90;;;;;;4962655;28;20747;-73
2022/07/11 11:42:04;;;;;;;0.00;0.00;;;22.60;99.90;;;;;;4962136;28;20886;-74
2022/07/11 11:44:32;;;;;;;0.00;0.00;;;22.60;99.90;;;;;;4963386;28;20736;-73
2022/07/11 11:47:01;;;;;;;0.00;0.00;;;22.60;99.90;;;;;;4963727;28;20775;-73
2022/07/11 11:49:41;;;;;;;0.00;0.00;;;22.60;99.90;;;;;;4962593;28;20479;-74
2022/07/11 11:52:08;;;;;;;0.00;0.00;;;22.70;99.90;;;;;;4961093;28;20449;-74
2022/07/11 11:54:36;;;;;;;0.00;0.00;;;22.90;99.90;;;;;;4961575;28;21125;-72
2022/07/11 11:57:07;;;;;;;0.00;0.00;;;23.00;99.90;;;;;;4961405;28;20735;-71
2022/07/11 11:59:35;;;;;;;0.00;0.00;;;23.10;99.90;;;;;;4961124;28;20430;-72
2022/07/11 12:02:05;;;;;;;0.00;0.00;;;22.90;99.90;;;;;;4960962;28;20458;-73
2022/07/11 12:04:34;;;;;;;0.00;0.00;;;22.70;99.90;;;;;;4961203;28;20534;-73
2022/07/11 12:07:02;;;;;;;0.00;0.00;;;22.60;99.90;;;;;;4961245;28;20472;-73
2022/07/11 12:09:50;;;;;;;0.00;0.00;;;22.40;99.90;;;;;;4960765;28;20495;-73
2022/07/11 12:15:08;;;;;;;0.00;0.00;;;22.30;99.90;;;;;;4961145;28;20707;-74
2022/07/11 12:17:37;;;;;;;0.00;0.00;;;22.20;99.90;;;;;;4960373;28;20858;-72
2022/07/11 12:20:07;;;;;;;0.00;0.00;;;22.20;99.90;;;;;;4960866;28;20440;-73
2022/07/11 12:22:48;;;;;;;0.00;0.00;;;22.20;99.90;;;;;;4960588;28;20550;-73
2022/07/11 12:25:16;;;;;;;0.00;0.00;;;22.30;99.90;;;;;;4960826;28;20544;-73
2022/07/11 12:27:46;;;;;;;0.00;0.00;;;22.30;99.90;;;;;;4960463;28;20860;-72
2022/07/11 12:30:24;;;;;;;0.00;0.00;;;22.40;99.90;;;;;;4960629;28;20488;-73
2022/07/11 12:33:07;;;;;;;0.00;0.00;;;22.60;99.90;;;;;;4960934;28;20482;-72
2022/07/11 12:35:36;;;;;;;0.00;0.00;;;22.90;99.90;;;;;;4960949;28;20927;-73
2022/07/11 12:38:05;;;;;;;0.00;0.00;;;23.20;99.90;;;;;;4960894;28;20556;-74
2022/07/11 12:40:33;;;;;;;0.00;0.00;;;23.40;99.90;;;;;;4960098;28;20436;-74
2022/07/11 12:44:56;;;;;;;0.00;0.00;;;23.60;99.90;;;;;;4960541;28;20850;-74
2022/07/11 12:46:01;;;;;;;0.00;0.00;;;23.60;99.90;;;;;;4960737;28;20775;-73
2022/07/11 12:48:41;;;;;;;0.00;0.00;;;23.50;99.90;;;;;;4965523;28;20516;-73
2022/07/11 12:51:09;;;;;;;0.00;0.00;;;23.50;99.90;;;;;;4964074;28;20483;-73
2022/07/11 12:53:37;;;;;;;0.00;0.00;;;23.50;99.90;;;;;;4963892;28;20756;-73
2022/07/11 12:56:05;;;;;;;0.00;0.00;;;23.50;99.90;;;;;;4963576;28;20807;-74
2022/07/11 12:58:38;;;;;;;0.00;0.00;;;23.30;99.90;;;;;;4960960;28;20605;-73
2022/07/11 13:01:06;;;;;;;0.00;0.00;;;23.10;99.90;;;;;;4960546;28;20584;-73
2022/07/11 13:03:36;;;;;;;0.00;0.00;;;23.00;99.90;;;;;;4960256;28;20609;-73
2022/07/11 13:06:05;;;;;;;0.00;0.00;;;23.00;99.90;;;;;;4960781;28;20473;-73
2022/07/11 13:08:42;;;;;;;0.00;0.00;;;23.00;99.90;;;;;;4960208;28;20591;-74
2022/07/11 13:11:12;;;;;;;0.00;0.00;;;23.00;99.90;;;;;;4959283;28;20716;-72
2022/07/11 13:13:40;;;;;;;0.00;0.00;;;22.90;99.90;;;;;;4959839;28;20899;-72
2022/07/11 13:16:08;;;;;;;0.00;0.00;;;22.90;99.90;;;;;;4959642;28;20447;-74
2022/07/11 13:18:36;;;;;;;0.00;0.00;;;22.90;99.90;;;;;;4959607;28;20570;-74
2022/07/11 13:21:07;;;;;;;0.00;0.00;;;22.80;99.90;;;;;;4960243;28;20441;-74
2022/07/11 13:23:35;;;;;;;0.00;0.00;;;22.80;99.90;;;;;;4961077;28;20564;-74
2022/07/11 13:26:04;;;;;;;0.00;0.00;;;22.90;99.90;;;;;;4961310;28;20446;-74